Time;durP1;ratioP1;P1;durP2;ratioP2;P2;SDS_P1;SDS_P2;PMS_P1;PMS_P2;Temp;Humidity;BMP_temperature;BMP_pressure;BME280_temperature;BME280_humidity;BME280_pressure;Samples;Min_cycle;Max_cycle;Signal;HPM_P1;HPM_P2
2023/03/05 00:01:46;;;;;;;2.73;2.60;;;;;;;5.98;96.17;100672.84;5107116;28;20461;-47
2023/03/05 00:04:14;;;;;;;2.70;2.50;;;;;;;5.96;97.18;100679.03;5107712;28;20445;-46
2023/03/05 00:06:40;;;;;;;4.00;3.70;;;;;;;6.09;96.40;100681.59;5099918;28;20453;-47
2023/03/05 00:09:07;;;;;;;2.70;2.50;;;;;;;6.16;96.12;100672.75;5107590;28;20472;-46
2023/03/05 00:11:33;;;;;;;5.17;3.00;;;;;;;6.22;95.87;100670.13;5108330;28;20448;-47
2023/03/05 00:14:02;;;;;;;7.73;3.43;;;;;;;6.28;95.26;100669.19;5103323;28;20444;-48
2023/03/05 00:16:30;;;;;;;3.63;3.43;;;;;;;6.33;94.82;100670.06;5100562;28;20491;-47
2023/03/05 00:18:58;;;;;;;3.40;3.20;;;;;;;6.30;95.36;100671.81;5106427;28;21042;-47
2023/03/05 00:21:26;;;;;;;3.47;3.30;;;;;;;6.27;95.58;100670.09;5106011;28;20543;-47
2023/03/05 00:23:54;;;;;;;4.70;1.90;;;;;;;6.20;95.14;100666.59;5105806;28;20821;-47
2023/03/05 00:26:24;;;;;;;3.53;2.60;;;;;;;6.03;96.07;100664.91;5108390;28;20851;-46
2023/03/05 00:28:51;;;;;;;3.10;2.87;;;;;;;6.12;96.34;100663.13;5096640;28;20461;-47
2023/03/05 00:31:23;;;;;;;2.63;2.20;;;;;;;6.19;96.33;100658.69;5108114;28;21006;-46
2023/03/05 00:33:55;;;;;;;6.93;3.80;;;;;;;6.15;96.41;100660.44;5105564;28;20440;-46
2023/03/05 00:36:23;;;;;;;5.60;3.47;;;;;;;6.18;96.18;100655.19;5095215;28;20476;-46
2023/03/05 00:38:49;;;;;;;3.73;2.90;;;;;;;6.22;95.99;100649.00;5102939;28;20477;-46
2023/03/05 00:41:16;;;;;;;3.97;3.77;;;;;;;6.11;96.13;100640.25;5107995;28;20518;-47
2023/03/05 00:43:44;;;;;;;6.00;3.80;;;;;;;6.15;96.17;100647.25;5106353;28;20444;-46
2023/03/05 00:46:10;;;;;;;2.37;2.27;;;;;;;6.07;96.13;100648.19;5100842;28;20447;-47
2023/03/05 00:48:37;;;;;;;2.70;2.20;;;;;;;6.11;96.48;100650.81;5101867;28;20477;-47
2023/03/05 00:51:03;;;;;;;9.20;4.67;;;;;;;5.97;96.76;100639.44;5109067;28;20452;-47
2023/03/05 00:53:30;;;;;;;7.23;3.10;;;;;;;5.99;96.72;100639.44;5101709;28;20502;-46
2023/03/05 00:55:58;;;;;;;3.30;2.97;;;;;;;5.88;97.80;100645.59;5100533;28;20444;-46
2023/03/05 00:58:24;;;;;;;8.50;2.07;;;;;;;6.03;97.98;100647.34;5100818;28;20467;-46
2023/03/05 01:00:51;;;;;;;3.93;3.27;;;;;;;5.77;98.03;100638.63;5099240;28;20444;-46
2023/03/05 01:03:18;;;;;;;14.13;2.17;;;;;;;5.73;98.58;100642.13;5107320;28;20948;-46
2023/03/05 01:05:44;;;;;;;6.03;3.73;;;;;;;5.68;98.60;100630.72;5087380;28;20488;-46
2023/03/05 01:08:11;;;;;;;3.30;3.00;;;;;;;5.65;98.88;100635.13;5100707;28;20473;-46
2023/03/05 01:10:37;;;;;;;3.10;2.90;;;;;;;5.82;98.41;100629.78;5107598;28;20449;-47
2023/03/05 01:13:04;;;;;;;3.47;3.17;;;;;;;5.76;97.75;100632.47;5100689;28;20823;-48
2023/03/05 01:15:30;;;;;;;3.07;2.77;;;;;;;5.86;98.38;100628.00;5100028;28;20803;-46
2023/03/05 01:17:57;;;;;;;1.90;1.80;;;;;;;5.73;98.85;100623.66;5100815;28;20489;-47
2023/03/05 01:20:23;;;;;;;4.70;3.03;;;;;;;5.77;98.35;100613.13;5107316;28;20445;-47
2023/03/05 01:22:50;;;;;;;8.73;3.70;;;;;;;5.73;98.41;100614.00;5107061;28;20444;-46
2023/03/05 01:25:17;;;;;;;2.80;2.40;;;;;;;5.79;98.66;100613.09;5086666;28;20875;-46
2023/03/05 01:27:43;;;;;;;3.10;2.60;;;;;;;5.84;98.03;100613.97;5097647;28;20464;-47
2023/03/05 01:30:12;;;;;;;3.83;3.53;;;;;;;5.88;97.37;100607.78;5106955;28;20445;-47
2023/03/05 01:32:39;;;;;;;17.97;4.93;;;;;;;5.71;98.42;100607.84;5104190;28;20452;-46
2023/03/05 01:35:06;;;;;;;4.33;3.13;;;;;;;5.79;97.65;100607.84;5101385;28;20448;-47
2023/03/05 01:37:33;;;;;;;7.67;3.33;;;;;;;5.72;97.27;100611.38;5099600;28;20487;-47
2023/03/05 01:39:59;;;;;;;14.50;4.80;;;;;;;5.76;97.60;100611.38;5105806;28;20839;-47
2023/03/05 01:42:26;;;;;;;2.10;1.97;;;;;;;5.73;96.44;100608.72;5106682;28;20448;-47
2023/03/05 01:45:19;;;;;;;3.37;3.20;;;;;;;5.87;96.55;100611.28;5101097;28;20444;-47
2023/03/05 01:47:45;;;;;;;5.17;2.20;;;;;;;5.75;95.99;100601.66;5095141;28;20517;-47
2023/03/05 01:50:17;;;;;;;2.37;1.27;;;;;;;5.64;96.72;100601.72;5101777;28;20465;-46
2023/03/05 01:52:51;;;;;;;2.53;2.43;;;;;;;5.88;94.94;100597.22;5110527;28;20474;-46
2023/03/05 01:55:24;;;;;;;2.50;2.23;;;;;;;5.61;96.03;100604.34;5099776;28;20437;-47
2023/03/05 01:58:03;;;;;;;1.70;1.60;;;;;;;5.62;96.38;100589.44;5104372;28;20484;-46
2023/03/05 02:00:34;;;;;;;1.93;1.83;;;;;;;5.70;95.96;100584.13;5106574;28;20448;-47
2023/03/05 02:03:06;;;;;;;2.53;2.33;;;;;;;5.64;96.92;100578.00;5086083;28;20452;-46
2023/03/05 02:05:35;;;;;;;2.13;1.80;;;;;;;5.65;96.05;100573.59;5106499;28;20491;-47
2023/03/05 02:08:04;;;;;;;2.00;1.80;;;;;;;5.79;94.66;100578.81;5084581;28;20446;-46
2023/03/05 02:10:37;;;;;;;53.93;2.60;;;;;;;5.78;95.21;100574.44;5105759;28;20822;-46
2023/03/05 02:13:08;;;;;;;3.13;2.93;;;;;;;5.79;94.84;100568.28;5106245;28;20459;-47
2023/03/05 02:15:36;;;;;;;1.63;1.53;;;;;;;5.72;94.93;100571.81;5087189;28;20887;-47
2023/03/05 02:18:03;;;;;;;2.47;2.13;;;;;;;5.71;95.05;100567.41;5099000;28;21043;-46
2023/03/05 02:20:52;;;;;;;3.30;3.07;;;;;;;5.73;95.66;100555.97;5104717;28;20992;-47
2023/03/05 02:23:21;;;;;;;5.60;4.10;;;;;;;5.70;95.15;100557.75;5091589;28;20517;-46
2023/03/05 02:25:47;;;;;;;2.93;2.77;;;;;;;5.67;95.26;100547.22;5100997;28;20532;-48
2023/03/05 02:28:21;;;;;;;9.43;2.30;;;;;;;5.70;96.05;100548.06;5096155;28;20476;-47
2023/03/05 02:30:48;;;;;;;2.53;2.43;;;;;;;5.73;95.07;100545.41;5099908;28;20441;-47
2023/03/05 02:33:16;;;;;;;2.87;2.67;;;;;;;5.67;95.88;100541.94;5106141;28;20482;-46
2023/03/05 02:35:43;;;;;;;2.97;2.10;;;;;;;5.65;95.62;100547.25;5105866;28;20440;-46
2023/03/05 02:38:10;;;;;;;14.87;2.70;;;;;;;5.72;95.61;100550.72;5099283;28;20488;-47
2023/03/05 02:40:36;;;;;;;8.33;3.50;;;;;;;5.76;94.78;100550.72;5103495;28;20456;-47
2023/03/05 02:43:03;;;;;;;1.80;1.20;;;;;;;5.70;94.87;100555.13;5104417;28;20458;-47
2023/03/05 02:45:30;;;;;;;4.73;3.30;;;;;;;5.79;94.18;100552.44;5103527;28;20459;-47
2023/03/05 02:47:56;;;;;;;3.83;3.50;;;;;;;5.63;94.65;100546.38;5110084;28;20445;-47
2023/03/05 02:50:25;;;;;;;1.97;1.77;;;;;;;5.70;93.64;100553.34;5102853;28;20510;-47
2023/03/05 02:52:51;;;;;;;2.83;1.93;;;;;;;5.61;94.52;100549.00;5090722;28;20448;-46
2023/03/05 02:55:18;;;;;;;4.97;2.53;;;;;;;5.75;93.47;100545.41;5102797;28;20813;-47
2023/03/05 02:57:45;;;;;;;5.50;2.83;;;;;;;5.67;94.74;100537.56;5105249;28;20481;-50
2023/03/05 03:00:12;;;;;;;1.67;1.57;;;;;;;5.63;94.04;100536.69;5104408;28;20447;-47
2023/03/05 03:02:38;;;;;;;7.47;2.20;;;;;;;5.64;94.21;100533.19;5089360;28;20471;-46
2023/03/05 03:05:05;;;;;;;3.00;2.20;;;;;;;5.62;94.42;100531.44;5109829;28;20948;-46
2023/03/05 03:07:33;;;;;;;3.03;2.23;;;;;;;5.55;94.57;100529.69;5103872;28;20497;-47
2023/03/05 03:09:59;;;;;;;2.07;1.70;;;;;;;5.45;95.22;100536.75;5102681;28;20469;-47
2023/03/05 03:12:26;;;;;;;2.67;2.47;;;;;;;5.41;94.86;100520.97;5107830;28;20459;-46
2023/03/05 03:14:52;;;;;;;4.80;3.10;;;;;;;5.39;95.44;100526.25;5109620;28;20448;-47
2023/03/05 03:17:19;;;;;;;3.00;2.77;;;;;;;5.33;95.74;100523.63;5104122;28;20540;-48
2023/03/05 03:19:45;;;;;;;4.63;3.90;;;;;;;5.37;94.71;100520.13;5102317;28;20879;-46
2023/03/05 03:22:14;;;;;;;3.87;2.40;;;;;;;5.37;95.12;100517.47;5107300;28;20483;-48
2023/03/05 03:24:41;;;;;;;5.63;2.77;;;;;;;5.32;95.00;100508.69;5109306;28;20924;-46
2023/03/05 03:27:08;;;;;;;5.47;1.60;;;;;;;5.30;96.18;100508.69;5104318;28;20448;-48
2023/03/05 03:29:35;;;;;;;2.60;2.40;;;;;;;5.29;96.16;100512.22;5101601;28;20473;-47
2023/03/05 03:32:03;;;;;;;2.73;2.53;;;;;;;5.27;95.80;100506.09;5092037;28;20472;-46
2023/03/05 03:34:30;;;;;;;1.67;1.40;;;;;;;5.25;95.19;100509.59;5102337;27;20457;-46
2023/03/05 03:36:56;;;;;;;3.90;1.67;;;;;;;5.22;95.23;100502.59;5106429;28;20536;-47
2023/03/05 03:39:24;;;;;;;2.60;2.40;;;;;;;5.22;95.67;100507.88;5109429;28;20467;-46
2023/03/05 03:41:52;;;;;;;2.70;2.33;;;;;;;5.17;95.78;100506.13;5104694;28;20488;-46
2023/03/05 03:44:20;;;;;;;3.97;3.20;;;;;;;5.23;95.77;100499.09;5102198;28;20453;-46
2023/03/05 03:46:47;;;;;;;1.67;1.27;;;;;;;5.19;96.23;100499.06;5105256;27;20819;-48
2023/03/05 03:49:19;;;;;;;6.10;2.77;;;;;;;5.14;96.85;100499.09;5108407;28;20476;-47
2023/03/05 03:51:47;;;;;;;3.83;3.13;;;;;;;5.21;95.90;100502.59;5105306;28;20941;-46
2023/03/05 03:54:14;;;;;;;3.30;3.10;;;;;;;5.26;94.79;100499.06;5097822;28;20494;-47
2023/03/05 03:56:41;;;;;;;9.53;3.50;;;;;;;5.23;95.04;100498.19;5104834;28;20447;-47
2023/03/05 03:59:08;;;;;;;3.40;1.77;;;;;;;5.14;95.00;100491.19;5099702;28;20532;-47
2023/03/05 04:01:35;;;;;;;3.03;1.90;;;;;;;5.15;95.51;100490.31;5096827;28;20490;-47
2023/03/05 04:04:02;;;;;;;4.63;3.50;;;;;;;5.23;95.55;100492.94;5108198;28;20471;-46
2023/03/05 04:06:30;;;;;;;14.37;2.13;;;;;;;5.23;94.95;100492.94;5095330;28;20533;-47
2023/03/05 04:08:57;;;;;;;3.67;1.90;;;;;;;5.21;95.60;100489.44;5102232;28;20469;-46
2023/03/05 04:11:23;;;;;;;3.30;3.10;;;;;;;5.23;94.46;100490.31;5087603;28;20459;-47
2023/03/05 04:13:50;;;;;;;2.33;1.70;;;;;;;5.21;94.87;100487.66;5087925;28;20448;-47
2023/03/05 04:16:16;;;;;;;4.43;1.90;;;;;;;5.16;94.80;100491.19;5101780;28;20452;-47
2023/03/05 04:18:43;;;;;;;3.27;2.40;;;;;;;5.12;95.44;100486.81;5108370;28;20515;-47
2023/03/05 04:21:10;;;;;;;3.07;2.83;;;;;;;5.15;94.65;100487.69;5108377;28;20444;-46
2023/03/05 04:23:37;;;;;;;2.50;1.53;;;;;;;5.23;94.23;100488.53;5101117;28;20500;-47
2023/03/05 04:26:04;;;;;;;3.40;3.10;;;;;;;5.28;94.62;100489.38;5100975;27;20453;-47
2023/03/05 04:28:31;;;;;;;2.57;2.37;;;;;;;5.20;94.37;100483.25;5101254;28;20468;-47
2023/03/05 04:30:57;;;;;;;2.50;1.90;;;;;;;5.24;93.98;100487.66;5101247;28;20453;-49
2023/03/05 04:33:24;;;;;;;3.47;3.27;;;;;;;5.37;93.95;100482.34;5107936;28;20485;-46
2023/03/05 04:35:51;;;;;;;0.80;0.77;;;;;;;5.34;94.23;100488.47;5108191;28;20448;-47
2023/03/05 04:38:18;;;;;;;2.10;1.67;;;;;;;5.38;92.63;100482.31;5101455;28;20499;-46
2023/03/05 04:40:45;;;;;;;0.53;0.53;;;;;;;5.38;94.03;100482.31;5087897;28;20854;-47
2023/03/05 04:43:12;;;;;;;25.57;3.03;;;;;;;5.41;92.65;100481.44;5107552;28;21003;-47
2023/03/05 04:45:39;;;;;;;2.17;1.97;;;;;;;5.14;93.18;100480.66;5107899;28;20940;-48
2023/03/05 04:48:06;;;;;;;1.23;1.13;;;;;;;5.08;92.76;100478.06;5101067;28;20870;-47
2023/03/05 04:50:32;;;;;;;1.57;1.47;;;;;;;5.26;92.61;100480.63;5101440;28;20818;-46
2023/03/05 04:52:59;;;;;;;1.70;0.70;;;;;;;5.52;91.74;100482.25;5105375;28;20548;-46
2023/03/05 04:55:26;;;;;;;1.30;1.20;;;;;;;5.21;92.53;100469.22;5096403;28;20814;-46
2023/03/05 04:57:52;;;;;;;2.80;1.70;;;;;;;5.23;91.96;100475.38;5105107;28;21056;-46
2023/03/05 05:00:19;;;;;;;5.40;2.00;;;;;;;5.32;92.44;100472.66;5107550;28;20448;-46
2023/03/05 05:02:48;;;;;;;2.93;2.73;;;;;;;5.29;92.25;100469.19;5091271;28;20818;-47
2023/03/05 05:05:18;;;;;;;0.80;0.80;;;;;;;5.18;92.04;100474.47;5100548;28;20453;-46
2023/03/05 05:07:44;;;;;;;2.60;2.40;;;;;;;5.26;92.83;100477.97;5100120;28;20442;-46
2023/03/05 05:10:12;;;;;;;11.50;1.70;;;;;;;5.37;92.73;100466.53;5103780;28;20465;-47
2023/03/05 05:12:38;;;;;;;4.10;2.57;;;;;;;5.46;91.21;100472.59;5103966;28;20448;-46
2023/03/05 05:15:06;;;;;;;2.23;2.03;;;;;;;5.31;92.65;100467.41;5100160;28;20493;-46
2023/03/05 05:17:33;;;;;;;1.60;1.50;;;;;;;5.28;92.00;100472.69;5103530;28;21051;-46
2023/03/05 05:20:00;;;;;;;3.50;0.97;;;;;;;5.19;91.79;100459.53;5100964;28;20840;-46
2023/03/05 05:22:28;;;;;;;14.83;0.70;;;;;;;5.24;92.01;100457.78;5100596;28;20888;-46
2023/03/05 05:24:55;;;;;;;3.10;2.90;;;;;;;5.21;91.63;100458.69;5082911;28;20453;-47
2023/03/05 05:27:22;;;;;;;1.63;1.53;;;;;;;5.19;92.10;100456.91;5085187;28;20449;-46
2023/03/05 05:29:51;;;;;;;2.03;1.93;;;;;;;5.02;92.37;100459.63;5104596;28;20601;-47
2023/03/05 05:32:20;;;;;;;2.70;2.60;;;;;;;5.06;91.94;100453.44;5098646;28;20456;-47
2023/03/05 05:34:47;;;;;;;2.93;2.63;;;;;;;5.15;91.89;100447.28;5098294;28;20452;-47
2023/03/05 05:37:14;;;;;;;1.50;1.23;;;;;;;5.12;91.88;100452.56;5101804;28;20942;-47
2023/03/05 05:39:40;;;;;;;1.83;1.00;;;;;;;5.04;92.17;100449.94;5098459;28;20728;-47
2023/03/05 05:42:06;;;;;;;1.70;1.60;;;;;;;5.15;92.52;100447.28;5107611;28;20485;-47
2023/03/05 05:44:33;;;;;;;2.10;1.80;;;;;;;5.04;93.11;100447.31;5095200;28;20938;-48
2023/03/05 05:47:00;;;;;;;4.03;3.50;;;;;;;5.25;92.99;100452.50;5095257;28;20452;-48
2023/03/05 05:49:27;;;;;;;6.03;3.23;;;;;;;5.24;92.07;100442.84;5106698;28;20522;-47
2023/03/05 05:51:53;;;;;;;3.10;2.90;;;;;;;5.08;92.05;100448.19;5105515;28;20448;-47
2023/03/05 05:54:19;;;;;;;1.03;1.03;;;;;;;5.18;92.91;100452.53;5094492;28;20532;-47
2023/03/05 05:56:46;;;;;;;2.40;1.63;;;;;;;5.33;92.14;100455.09;5079762;28;20460;-47
2023/03/05 05:59:12;;;;;;;1.97;1.90;;;;;;;5.20;92.48;100449.00;5109812;28;20484;-47
2023/03/05 06:01:39;;;;;;;1.90;1.80;;;;;;;5.25;92.07;100446.38;5092142;28;20465;-47
2023/03/05 06:04:05;;;;;;;3.00;2.80;;;;;;;5.17;92.31;100445.50;5111789;28;20452;-47
2023/03/05 06:06:33;;;;;;;10.43;1.30;;;;;;;5.14;93.71;100450.81;5099530;28;20445;-50
2023/03/05 06:09:00;;;;;;;4.40;3.40;;;;;;;5.19;92.65;100449.00;5093879;28;20460;-47
2023/03/05 06:11:26;;;;;;;2.43;1.23;;;;;;;5.21;92.50;100444.63;5099249;28;21086;-49
2023/03/05 06:13:53;;;;;;;2.93;1.43;;;;;;;5.17;93.34;100449.03;5105087;28;20453;-47
2023/03/05 06:16:23;;;;;;;2.83;1.90;;;;;;;5.11;93.60;100442.91;5106334;28;20484;-47
2023/03/05 06:18:51;;;;;;;1.47;1.37;;;;;;;5.12;93.08;100447.31;5100848;28;20526;-47
2023/03/05 06:21:19;;;;;;;1.17;0.97;;;;;;;5.10;93.12;100449.94;5110874;28;20447;-47
2023/03/05 06:23:47;;;;;;;8.13;3.03;;;;;;;5.13;92.39;100449.06;5101288;28;20462;-47
2023/03/05 06:26:18;;;;;;;1.10;1.00;;;;;;;5.15;92.19;100442.88;5099154;28;20497;-47
2023/03/05 06:28:44;;;;;;;1.70;1.50;;;;;;;5.15;92.97;100449.91;5078671;28;20970;-47
2023/03/05 06:31:17;;;;;;;3.10;2.90;;;;;;;5.13;92.46;100446.41;5086782;28;20448;-47
2023/03/05 06:33:44;;;;;;;4.20;2.03;;;;;;;5.21;92.17;100448.16;5097172;28;20444;-47
2023/03/05 06:36:14;;;;;;;5.40;2.37;;;;;;;5.19;91.55;100443.75;5104838;28;20460;-47
2023/03/05 06:38:40;;;;;;;3.20;2.33;;;;;;;5.11;92.17;100445.56;5103864;28;20492;-47
2023/03/05 06:41:13;;;;;;;4.83;3.40;;;;;;;5.20;92.88;100440.22;5087372;28;20448;-47
2023/03/05 06:43:41;;;;;;;3.40;2.33;;;;;;;5.17;92.83;100440.25;5104892;28;20451;-47
2023/03/05 06:46:14;;;;;;;1.43;1.40;;;;;;;5.13;93.68;100439.38;5088407;28;20933;-47
2023/03/05 06:48:42;;;;;;;4.20;1.80;;;;;;;5.19;93.33;100441.97;5104826;28;20476;-48
2023/03/05 06:51:16;;;;;;;3.03;1.37;;;;;;;5.17;92.47;100448.16;5093642;28;20456;-48
2023/03/05 06:53:43;;;;;;;1.90;1.63;;;;;;;5.20;92.29;100445.50;5100026;28;20444;-49
2023/03/05 06:56:12;;;;;;;2.73;1.73;;;;;;;5.22;91.75;100456.94;5089766;28;21014;-49
2023/03/05 06:58:39;;;;;;;3.27;1.43;;;;;;;5.21;92.19;100456.06;5105745;28;20496;-48
2023/03/05 07:01:06;;;;;;;5.63;1.60;;;;;;;5.16;92.69;100452.53;5088931;28;20445;-48
2023/03/05 07:03:34;;;;;;;4.00;1.90;;;;;;;5.19;92.19;100456.91;5081005;28;20485;-49
2023/03/05 07:06:06;;;;;;;1.67;1.57;;;;;;;5.19;92.48;100456.91;5096674;28;20445;-48
2023/03/05 07:08:33;;;;;;;5.77;1.37;;;;;;;5.20;91.79;100456.03;5102622;28;20470;-48
2023/03/05 07:11:00;;;;;;;1.23;0.90;;;;;;;5.17;92.10;100445.50;5097488;28;20448;-47
2023/03/05 07:13:27;;;;;;;1.30;1.20;;;;;;;5.23;90.68;100445.50;5096029;28;20444;-49
2023/03/05 07:15:54;;;;;;;3.33;3.13;;;;;;;5.14;91.50;100446.41;5093924;28;20448;-48
2023/03/05 07:18:21;;;;;;;1.90;0.60;;;;;;;5.04;92.09;100450.81;5103624;28;20497;-47
2023/03/05 07:20:47;;;;;;;22.17;2.00;;;;;;;5.27;91.22;100450.75;5084764;28;20454;-48
2023/03/05 07:23:14;;;;;;;1.93;0.90;;;;;;;5.31;88.08;100454.22;5091916;28;20834;-48
2023/03/05 07:25:40;;;;;;;0.97;0.70;;;;;;;5.30;87.34;100448.09;5104999;28;20452;-47
2023/03/05 07:28:06;;;;;;;0.30;0.20;;;;;;;5.38;87.19;100447.19;5101077;28;20496;-47
2023/03/05 07:30:33;;;;;;;0.97;0.77;;;;;;;5.39;87.02;100441.03;5091890;28;20452;-47
2023/03/05 07:33:00;;;;;;;0.73;0.73;;;;;;;5.43;86.21;100448.03;5107447;28;20449;-47
2023/03/05 07:35:27;;;;;;;0.40;0.30;;;;;;;5.53;86.54;100445.34;5105913;28;20926;-48
2023/03/05 07:37:54;;;;;;;6.23;1.60;;;;;;;5.58;86.84;100437.41;5092923;28;20542;-48
2023/03/05 07:40:21;;;;;;;1.47;1.37;;;;;;;5.59;86.35;100436.50;5100058;28;20476;-47
2023/03/05 07:42:47;;;;;;;1.07;0.80;;;;;;;5.66;85.60;100432.97;5108786;28;20463;-49
2023/03/05 07:45:14;;;;;;;1.40;1.37;;;;;;;5.64;85.67;100432.97;5091898;28;20957;-47
2023/03/05 07:47:40;;;;;;;2.23;1.03;;;;;;;5.72;85.30;100439.94;5097050;28;20455;-47
2023/03/05 07:50:07;;;;;;;0.40;0.23;;;;;;;5.82;84.59;100437.25;5093133;28;20477;-48
2023/03/05 07:52:34;;;;;;;5.87;2.10;;;;;;;5.82;85.15;100436.38;5099256;28;20448;-47
2023/03/05 07:55:00;;;;;;;0.60;0.50;;;;;;;5.92;85.11;100441.59;5100157;28;20455;-48
2023/03/05 07:57:26;;;;;;;1.27;1.17;;;;;;;5.87;85.15;100442.47;5089625;28;20463;-48
2023/03/05 07:59:53;;;;;;;1.33;0.47;;;;;;;5.89;84.46;100438.06;5107034;28;20488;-51
2023/03/05 08:02:20;;;;;;;3.07;1.03;;;;;;;5.96;84.61;100434.53;5089562;28;20545;-48
2023/03/05 08:04:47;;;;;;;2.53;1.90;;;;;;;6.01;85.17;100438.00;5107165;28;20472;-48
2023/03/05 08:07:15;;;;;;;1.00;1.00;;;;;;;5.89;84.96;100436.31;5101628;28;20440;-49
2023/03/05 08:09:41;;;;;;;1.90;1.80;;;;;;;6.13;84.29;100431.75;5102711;28;20510;-48
2023/03/05 08:12:09;;;;;;;1.70;1.60;;;;;;;5.89;82.59;100433.69;5108206;28;20905;-48
2023/03/05 08:14:35;;;;;;;1.10;0.47;;;;;;;5.99;82.41;100429.22;5107765;28;20474;-49
2023/03/05 08:17:03;;;;;;;0.60;0.60;;;;;;;6.31;82.62;100422.84;5101544;28;20877;-48
2023/03/05 08:19:31;;;;;;;0.77;0.77;;;;;;;6.36;80.63;100424.53;5101588;28;20493;-48
2023/03/05 08:21:57;;;;;;;5.47;0.87;;;;;;;6.31;79.33;100422.84;5088185;28;20452;-48
2023/03/05 08:24:28;;;;;;;1.53;1.43;;;;;;;6.24;81.00;100412.31;5101288;28;20449;-48
2023/03/05 08:26:56;;;;;;;1.70;1.57;;;;;;;6.28;81.35;100412.28;5089530;28;20538;-49
2023/03/05 08:29:23;;;;;;;1.23;1.00;;;;;;;6.28;81.08;100405.22;5101031;28;21112;-48
2023/03/05 08:31:52;;;;;;;5.83;0.43;;;;;;;6.41;80.51;100406.88;5107251;28;20445;-49
2023/03/05 08:34:19;;;;;;;2.20;1.37;;;;;;;6.28;80.19;100407.88;5108047;28;20447;-49
2023/03/05 08:36:46;;;;;;;1.93;1.00;;;;;;;6.26;80.52;100411.41;5102579;28;20936;-47
2023/03/05 08:39:13;;;;;;;0.43;0.43;;;;;;;6.21;78.15;100400.91;5100570;28;20489;-49
2023/03/05 08:41:40;;;;;;;0.37;0.30;;;;;;;6.33;78.42;100410.50;5105766;28;20463;-48
2023/03/05 08:44:06;;;;;;;0.90;0.90;;;;;;;6.34;79.73;100402.56;5107664;28;20449;-48
2023/03/05 08:46:33;;;;;;;0.40;0.30;;;;;;;6.43;78.90;100398.94;5103175;28;20466;-49
2023/03/05 08:49:00;;;;;;;1.60;1.50;;;;;;;6.71;78.63;100400.38;5100461;28;20473;-48
2023/03/05 08:51:26;;;;;;;1.43;0.90;;;;;;;6.50;78.50;100395.34;5105518;28;20456;-48
2023/03/05 08:53:54;;;;;;;2.87;0.93;;;;;;;6.44;78.73;100395.41;5107178;28;20821;-48
2023/03/05 08:56:21;;;;;;;1.23;0.90;;;;;;;6.37;78.58;100401.63;5103865;28;20971;-48
2023/03/05 08:58:48;;;;;;;0.67;0.67;;;;;;;6.61;77.30;100400.53;5100328;28;20885;-49
2023/03/05 09:01:14;;;;;;;0.50;0.50;;;;;;;6.58;76.78;100398.78;5101721;28;20466;-48
2023/03/05 09:03:41;;;;;;;1.27;0.60;;;;;;;6.65;72.33;100392.53;5092792;28;20483;-48
2023/03/05 09:06:09;;;;;;;1.40;0.90;;;;;;;6.64;71.64;100393.44;5104307;28;20814;-48
2023/03/05 09:08:35;;;;;;;1.37;0.73;;;;;;;6.91;69.99;100391.38;5107371;28;20475;-48
2023/03/05 09:11:04;;;;;;;1.80;0.30;;;;;;;6.72;71.21;100396.88;5102644;28;20543;-48
2023/03/05 09:13:32;;;;;;;0.73;0.73;;;;;;;6.93;70.03;100393.09;5100238;28;20465;-49
2023/03/05 09:16:03;;;;;;;1.83;1.73;;;;;;;6.97;69.71;100392.16;5103696;28;20464;-48
2023/03/05 09:18:30;;;;;;;1.13;0.97;;;;;;;7.05;70.69;100390.31;5107183;28;20461;-48
2023/03/05 09:20:57;;;;;;;0.83;0.47;;;;;;;7.18;69.01;100385.75;5105392;28;20444;-48
2023/03/05 09:23:24;;;;;;;1.57;1.20;;;;;;;6.97;70.39;100383.34;5100489;28;20448;-49
2023/03/05 09:25:50;;;;;;;3.90;1.10;;;;;;;7.08;69.72;100384.97;5102529;28;20451;-48
2023/03/05 09:28:17;;;;;;;1.33;0.87;;;;;;;7.17;68.25;100384.00;5107259;28;20483;-48
2023/03/05 09:30:43;;;;;;;1.53;0.80;;;;;;;7.08;67.89;100374.41;5105233;28;20459;-48
2023/03/05 09:33:10;;;;;;;1.63;1.53;;;;;;;6.77;69.90;100376.56;5099988;28;20451;-48
2023/03/05 09:35:36;;;;;;;3.83;2.47;;;;;;;6.87;69.77;100369.41;5101927;28;20452;-49
2023/03/05 09:38:03;;;;;;;3.30;1.70;;;;;;;6.96;68.84;100369.28;5107195;28;20456;-48
2023/03/05 09:40:44;;;;;;;1.77;0.90;;;;;;;6.63;69.78;100367.03;5105351;28;20485;-47
2023/03/05 09:43:28;;;;;;;0.50;0.50;;;;;;;6.89;69.34;100369.38;5106097;28;20451;-47
2023/03/05 09:46:12;;;;;;;11.77;1.23;;;;;;;6.95;70.37;100364.88;5106771;28;20502;-47
2023/03/05 09:48:57;;;;;;;1.03;0.93;;;;;;;6.72;69.58;100367.81;5104869;28;20468;-47
2023/03/05 09:51:29;;;;;;;0.73;0.60;;;;;;;6.91;69.07;100371.09;5089559;28;20442;-48
2023/03/05 09:54:11;;;;;;;1.17;1.10;;;;;;;7.07;69.22;100364.72;5097239;28;20922;-47
2023/03/05 09:56:44;;;;;;;0.93;0.80;;;;;;;7.19;68.00;100366.34;5105460;28;20444;-47
2023/03/05 09:59:24;;;;;;;5.73;2.30;;;;;;;7.03;69.70;100364.78;5099234;28;20974;-47
2023/03/05 10:01:52;;;;;;;1.93;0.93;;;;;;;6.92;69.92;100359.63;5091465;28;20450;-47
2023/03/05 10:04:42;;;;;;;1.77;0.80;;;;;;;7.07;70.88;100364.72;5101206;28;20446;-47
2023/03/05 10:07:24;;;;;;;0.83;0.83;;;;;;;7.08;68.72;100353.25;5099628;28;20444;-47
2023/03/05 10:09:58;;;;;;;0.40;0.30;;;;;;;6.79;70.13;100356.28;5099432;28;20461;-46
2023/03/05 10:12:47;;;;;;;12.47;1.60;;;;;;;6.79;69.51;100353.63;5104629;28;20451;-49
2023/03/05 10:15:15;;;;;;;0.80;0.53;;;;;;;6.71;69.89;100352.84;5106356;28;20437;-48
2023/03/05 10:18:09;;;;;;;12.40;1.30;;;;;;;6.92;70.15;100345.56;5104691;28;20440;-48
2023/03/05 10:20:58;;;;;;;0.60;0.60;;;;;;;7.17;68.83;100338.19;5090605;28;20848;-48
2023/03/05 10:23:28;;;;;;;1.33;1.23;;;;;;;7.00;69.34;100341.06;5098930;28;20456;-48
2023/03/05 10:26:19;;;;;;;1.03;0.93;;;;;;;7.12;68.39;100333.81;5099562;28;20457;-48
2023/03/05 10:29:02;;;;;;;0.83;0.67;;;;;;;6.87;69.69;100336.81;5092379;28;20969;-48
2023/03/05 10:31:28;;;;;;;1.33;1.23;;;;;;;6.87;69.53;100335.06;5099066;28;20439;-50
2023/03/05 10:34:20;;;;;;;2.63;1.30;;;;;;;7.17;69.51;100333.75;5099203;28;20531;-50
2023/03/05 10:37:05;;;;;;;2.60;2.40;;;;;;;6.94;68.98;100334.06;5090679;28;20463;-48
2023/03/05 10:39:56;;;;;;;0.60;0.60;;;;;;;6.78;72.59;100329.88;5098949;28;20863;-48
2023/03/05 10:42:31;;;;;;;1.67;0.80;;;;;;;6.76;74.30;100336.97;5099189;28;20456;-47
2023/03/05 10:45:00;;;;;;;1.07;1.07;;;;;;;6.59;75.77;100338.94;5103074;28;20824;-47
2023/03/05 10:47:54;;;;;;;1.50;1.03;;;;;;;6.58;77.17;100331.88;5106020;28;20444;-48
2023/03/05 10:50:32;;;;;;;3.40;0.93;;;;;;;6.08;80.40;100331.53;5106114;28;20811;-53
2023/03/05 10:53:26;;;;;;;3.67;0.90;;;;;;;5.88;83.75;100342.22;5101451;28;20444;-53
2023/03/05 10:55:55;;;;;;;1.73;1.37;;;;;;;6.04;85.00;100331.59;5098639;28;20454;-53
2023/03/05 10:58:23;;;;;;;0.80;0.80;;;;;;;5.86;84.99;100325.53;5099418;28;20468;-52
2023/03/05 11:01:08;;;;;;;2.70;1.40;;;;;;;6.11;84.23;100323.59;5094466;28;20571;-52
2023/03/05 11:03:52;;;;;;;1.67;0.60;;;;;;;5.89;85.56;100329.91;5105555;28;21017;-53
2023/03/05 11:06:33;;;;;;;2.40;1.27;;;;;;;5.89;86.18;100324.63;5100669;28;20449;-52
2023/03/05 11:09:18;;;;;;;1.50;1.03;;;;;;;5.74;86.11;100322.13;5090035;28;20816;-52
2023/03/05 11:12:11;;;;;;;2.70;2.50;;;;;;;5.72;87.02;100318.63;5101447;28;20451;-52
2023/03/05 11:14:41;;;;;;;0.63;0.63;;;;;;;5.79;85.21;100315.06;5111004;28;20535;-52
2023/03/05 11:17:26;;;;;;;1.17;0.80;;;;;;;5.64;86.11;100311.69;5089712;28;20444;-52
2023/03/05 11:19:54;;;;;;;11.20;1.93;;;;;;;5.68;85.82;100314.28;5105976;28;20511;-51
2023/03/05 11:22:22;;;;;;;1.93;1.77;;;;;;;5.71;86.43;100309.84;5089287;28;20449;-52
2023/03/05 11:25:17;;;;;;;1.43;1.33;;;;;;;5.76;85.48;100307.19;5108108;28;20458;-52
2023/03/05 11:27:54;;;;;;;2.13;1.00;;;;;;;5.81;85.55;100300.09;5109235;28;20450;-52
2023/03/05 11:30:27;;;;;;;2.20;2.10;;;;;;;5.76;85.71;100300.16;5104759;28;20470;-52
2023/03/05 11:33:13;;;;;;;2.30;1.90;;;;;;;5.85;84.75;100299.19;5098490;28;20448;-52
2023/03/05 11:35:42;;;;;;;0.77;0.77;;;;;;;6.10;84.37;100284.91;5107298;28;20890;-52
2023/03/05 11:38:23;;;;;;;1.90;1.70;;;;;;;5.75;84.53;100281.69;5091425;28;20467;-51
2023/03/05 11:40:52;;;;;;;1.77;1.67;;;;;;;5.70;84.35;100281.72;5086242;28;20610;-52
2023/03/05 11:43:22;;;;;;;0.80;0.80;;;;;;;5.72;83.80;100279.09;5099660;27;20512;-52
2023/03/05 11:45:52;;;;;;;1.10;0.90;;;;;;;5.80;83.19;100283.41;5101803;28;20453;-51